Time;durP1;ratioP1;P1;durP2;ratioP2;P2;SDS_P1;SDS_P2;PMS_P1;PMS_P2;Temp;Humidity;BMP_temperature;BMP_pressure;BME280_temperature;BME280_humidity;BME280_pressure;Samples;Min_cycle;Max_cycle;Signal;HPM_P1;HPM_P2
2022/01/08 00:01:28;;;;;;;0.10;0.10;;;2.90;99.90;;;;;;5023506;28;20033;-68
2022/01/08 00:03:54;;;;;;;0.10;0.10;;;2.90;99.90;;;;;;5024346;28;20363;-68
2022/01/08 00:06:20;;;;;;;0.10;0.10;;;2.90;99.90;;;;;;5022751;28;20024;-70
2022/01/08 00:08:46;;;;;;;0.10;0.10;;;2.90;99.90;;;;;;5021108;28;20427;-68
2022/01/08 00:11:17;;;;;;;0.10;0.10;;;3.00;99.90;;;;;;5022248;28;20447;-67
2022/01/08 00:13:43;;;;;;;0.10;0.10;;;3.00;99.90;;;;;;5021216;28;20033;-67
2022/01/08 00:16:09;;;;;;;0.10;0.10;;;3.10;99.90;;;;;;5020965;28;20021;-68
2022/01/08 00:18:34;;;;;;;0.10;0.10;;;3.10;99.90;;;;;;5020472;28;20088;-68
2022/01/08 00:21:00;;;;;;;0.10;0.10;;;3.10;99.90;;;;;;5018752;28;20022;-66
2022/01/08 00:23:26;;;;;;;0.10;0.10;;;3.10;99.90;;;;;;5024176;28;20048;-68
2022/01/08 00:25:51;;;;;;;0.10;0.10;;;3.20;99.90;;;;;;5025050;28;20076;-68
2022/01/08 00:28:17;;;;;;;0.10;0.10;;;3.20;99.90;;;;;;5022798;28;20352;-67
2022/01/08 00:30:44;;;;;;;0.10;0.10;;;3.20;99.90;;;;;;5020990;28;20022;-67
2022/01/08 00:33:10;;;;;;;0.10;0.10;;;3.30;99.90;;;;;;5023515;28;20044;-67
2022/01/08 00:35:35;;;;;;;0.10;0.10;;;3.20;99.90;;;;;;5020983;28;20114;-67
2022/01/08 00:38:02;;;;;;;0.10;0.10;;;3.20;99.90;;;;;;5023730;28;20033;-67
2022/01/08 00:40:28;;;;;;;0.10;0.10;;;3.20;99.90;;;;;;5022762;28;20044;-67
2022/01/08 00:42:53;;;;;;;0.10;0.10;;;3.30;99.90;;;;;;5027407;28;20503;-67
2022/01/08 00:45:19;;;;;;;0.10;0.10;;;3.30;99.90;;;;;;5025315;28;20112;-67
2022/01/08 00:47:45;;;;;;;0.10;0.10;;;3.20;99.90;;;;;;5026424;28;20029;-67
2022/01/08 00:50:12;;;;;;;0.10;0.10;;;3.30;99.90;;;;;;5023533;28;20064;-67
2022/01/08 00:52:38;;;;;;;0.10;0.10;;;3.30;99.90;;;;;;5027915;28;20040;-67
2022/01/08 00:55:05;;;;;;;0.10;0.10;;;3.30;99.90;;;;;;5028347;28;20110;-67
2022/01/08 00:57:30;;;;;;;0.10;0.10;;;3.30;99.90;;;;;;5029329;28;20037;-68
2022/01/08 00:59:56;;;;;;;0.10;0.10;;;3.30;99.90;;;;;;5031979;28;20032;-67
2022/01/08 01:02:22;;;;;;;0.10;0.10;;;3.30;99.90;;;;;;5029466;28;20029;-67
2022/01/08 01:04:47;;;;;;;0.10;0.10;;;3.30;99.90;;;;;;5029663;28;20036;-67
2022/01/08 01:07:13;;;;;;;0.10;0.10;;;3.40;99.90;;;;;;5029412;28;20475;-67
2022/01/08 01:09:39;;;;;;;0.10;0.10;;;3.40;99.90;;;;;;5026842;28;20068;-67
2022/01/08 01:12:05;;;;;;;0.10;0.10;;;3.40;99.90;;;;;;5037488;28;20101;-67
2022/01/08 01:14:31;;;;;;;0.10;0.10;;;3.40;99.90;;;;;;5033022;28;20108;-67
2022/01/08 01:16:57;;;;;;;0.10;0.10;;;3.40;99.90;;;;;;5022921;28;20522;-67
2022/01/08 01:19:22;;;;;;;0.25;0.25;;;3.50;99.90;;;;;;5029555;28;20053;-68
2022/01/08 01:21:49;;;;;;;0.10;0.10;;;3.50;99.90;;;;;;5029420;28;20069;-67
2022/01/08 01:24:19;;;;;;;0.10;0.10;;;3.50;99.90;;;;;;5031057;28;20557;-67
2022/01/08 01:27:12;;;;;;;0.10;0.10;;;3.50;99.90;;;;;;5019129;28;20088;-67
2022/01/08 01:29:42;;;;;;;0.10;0.10;;;3.50;99.90;;;;;;5013576;28;20890;-66
2022/01/08 01:48:36;;;;;;;0.10;0.10;;;3.50;99.90;;;;;;5051112;28;20140;-69
2022/01/08 01:51:01;;;;;;;0.10;0.10;;;3.40;99.90;;;;;;5022059;28;20038;-69
2022/01/08 01:53:27;;;;;;;0.10;0.10;;;3.50;99.90;;;;;;5024439;28;20034;-70
2022/01/08 01:55:53;;;;;;;0.20;0.20;;;3.50;99.90;;;;;;5032230;28;20021;-70
2022/01/08 01:58:18;;;;;;;0.10;0.10;;;3.50;99.90;;;;;;5032174;28;20494;-70
2022/01/08 02:00:47;;;;;;;0.10;0.10;;;3.50;99.90;;;;;;5028341;28;20044;-70
2022/01/08 02:03:13;;;;;;;0.10;0.10;;;3.60;99.90;;;;;;5031896;28;20025;-70
2022/01/08 02:05:39;;;;;;;0.10;0.10;;;3.60;99.90;;;;;;5031999;28;20086;-70
2022/01/08 02:08:04;;;;;;;0.10;0.10;;;3.70;99.90;;;;;;5029900;28;20034;-70
2022/01/08 02:10:30;;;;;;;0.10;0.10;;;3.70;99.90;;;;;;5032028;28;20416;-70
2022/01/08 02:12:55;;;;;;;0.10;0.10;;;3.70;99.90;;;;;;5032129;28;20025;-70
2022/01/08 02:15:21;;;;;;;0.10;0.10;;;3.70;99.90;;;;;;5028683;28;20068;-69
2022/01/08 02:17:47;;;;;;;0.10;0.10;;;3.70;99.90;;;;;;5025328;28;20502;-70
2022/01/08 02:20:13;;;;;;;0.10;0.10;;;3.70;99.90;;;;;;5032060;28;20049;-70
2022/01/08 02:22:39;;;;;;;0.10;0.10;;;3.70;99.90;;;;;;5032946;28;20126;-72
2022/01/08 02:25:05;;;;;;;0.10;0.10;;;3.70;99.90;;;;;;5037813;28;20026;-70
2022/01/08 02:27:30;;;;;;;0.10;0.10;;;3.60;99.90;;;;;;5012241;28;20034;-69
2022/01/08 02:29:56;;;;;;;0.10;0.10;;;3.60;99.90;;;;;;5026954;28;20365;-70
2022/01/08 02:32:29;;;;;;;0.10;0.10;;;3.60;99.90;;;;;;5024799;28;20095;-70
2022/01/08 02:34:55;;;;;;;0.10;0.10;;;3.60;99.90;;;;;;5011443;28;20435;-70
2022/01/08 02:37:30;;;;;;;0.10;0.10;;;3.60;99.90;;;;;;5014163;28;20037;-70
2022/01/08 02:39:56;;;;;;;0.10;0.10;;;3.70;99.90;;;;;;5031144;28;20037;-69
2022/01/08 02:42:24;;;;;;;0.00;0.00;;;3.80;99.90;;;;;;5012850;28;20040;-69
2022/01/08 02:44:50;;;;;;;0.10;0.10;;;3.70;99.90;;;;;;5011737;28;20033;-71
2022/01/08 02:47:17;;;;;;;0.10;0.10;;;3.70;99.90;;;;;;5029950;28;20075;-69
2022/01/08 02:49:43;;;;;;;0.10;0.10;;;3.80;99.90;;;;;;5028070;28;20033;-70
2022/01/08 02:52:10;;;;;;;0.10;0.10;;;3.80;99.90;;;;;;5011390;28;20026;-69
2022/01/08 02:54:35;;;;;;;0.10;0.10;;;3.80;99.90;;;;;;5024034;28;20022;-68
2022/01/08 02:57:01;;;;;;;0.10;0.10;;;3.90;99.90;;;;;;5031061;28;20458;-70
2022/01/08 02:59:27;;;;;;;0.10;0.10;;;3.90;99.90;;;;;;5026451;28;20038;-69
2022/01/08 03:01:53;;;;;;;0.03;0.03;;;3.90;99.90;;;;;;5030999;28;20026;-71
2022/01/08 03:04:19;;;;;;;0.00;0.00;;;4.00;99.90;;;;;;5030924;28;20075;-69
2022/01/08 03:06:45;;;;;;;0.00;0.00;;;4.00;99.90;;;;;;5031034;28;20040;-70
2022/01/08 03:09:11;;;;;;;0.10;0.10;;;4.00;99.90;;;;;;5022981;28;20026;-70
2022/01/08 03:11:38;;;;;;;0.10;0.10;;;4.10;99.90;;;;;;5030835;28;20032;-70
2022/01/08 03:14:05;;;;;;;0.10;0.10;;;4.00;99.90;;;;;;5031246;28;20048;-70
2022/01/08 03:16:30;;;;;;;0.10;0.10;;;4.10;99.90;;;;;;5017361;28;20040;-70
2022/01/08 03:18:56;;;;;;;0.10;0.10;;;4.00;99.90;;;;;;5011271;28;20026;-70
2022/01/08 03:21:22;;;;;;;0.10;0.10;;;4.00;99.90;;;;;;5010944;28;20030;-69
2022/01/08 03:24:01;;;;;;;0.10;0.10;;;4.00;99.90;;;;;;5019580;28;20021;-70
2022/01/08 03:26:29;;;;;;;0.10;0.10;;;4.00;99.90;;;;;;5029103;28;20029;-70
2022/01/08 03:28:56;;;;;;;0.10;0.10;;;4.00;99.90;;;;;;5030786;28;20026;-70
2022/01/08 03:31:23;;;;;;;0.10;0.10;;;3.90;99.90;;;;;;5031985;28;20061;-70
2022/01/08 03:33:49;;;;;;;1.45;1.45;;;3.90;99.90;;;;;;5036530;28;20017;-70
2022/01/08 03:36:16;;;;;;;0.10;0.10;;;4.00;99.90;;;;;;5030004;28;20021;-70
2022/01/08 03:38:42;;;;;;;0.10;0.10;;;3.90;99.90;;;;;;5030337;28;20033;-69
2022/01/08 03:41:07;;;;;;;0.10;0.10;;;3.80;99.90;;;;;;5028936;28;20030;-69
2022/01/08 03:43:33;;;;;;;0.10;0.10;;;3.70;99.90;;;;;;5010769;28;20112;-70
2022/01/08 03:46:01;;;;;;;0.25;0.25;;;3.70;99.90;;;;;;5026008;28;20026;-69
2022/01/08 03:48:30;;;;;;;0.10;0.10;;;3.70;99.90;;;;;;5009709;28;20029;-69
2022/01/08 03:50:57;;;;;;;0.10;0.10;;;3.60;99.90;;;;;;5010049;28;20030;-69
2022/01/08 03:53:24;;;;;;;0.10;0.10;;;3.60;99.90;;;;;;5018454;28;20104;-69
2022/01/08 03:55:50;;;;;;;0.10;0.10;;;3.60;99.90;;;;;;5019046;28;20022;-69
2022/01/08 03:58:16;;;;;;;0.10;0.10;;;3.60;99.90;;;;;;5010498;28;20022;-70
2022/01/08 04:00:42;;;;;;;0.10;0.10;;;3.60;99.90;;;;;;5023974;28;20502;-69
2022/01/08 04:03:08;;;;;;;0.10;0.10;;;3.60;99.90;;;;;;5030138;28;20033;-69
2022/01/08 04:05:34;;;;;;;0.10;0.10;;;3.60;99.90;;;;;;5023953;28;20025;-69
2022/01/08 04:08:00;;;;;;;0.10;0.10;;;3.50;99.90;;;;;;5017789;28;20029;-70
2022/01/08 04:10:26;;;;;;;0.10;0.10;;;3.40;99.90;;;;;;5029891;28;20488;-68
2022/01/08 04:12:56;;;;;;;0.10;0.10;;;3.40;99.90;;;;;;5028515;28;20213;-69
2022/01/08 04:17:48;;;;;;;0.10;0.10;;;3.40;99.90;;;;;;5010122;28;20112;-70
2022/01/08 04:20:14;;;;;;;0.10;0.10;;;3.40;99.90;;;;;;5011961;28;20507;-69
2022/01/08 04:22:40;;;;;;;0.10;0.10;;;3.50;99.90;;;;;;5023806;28;20038;-70
2022/01/08 04:25:06;;;;;;;0.10;0.10;;;3.40;99.90;;;;;;5029434;28;20025;-69
2022/01/08 04:27:31;;;;;;;0.10;0.10;;;3.50;99.90;;;;;;5029538;28;20079;-69
2022/01/08 04:29:57;;;;;;;0.10;0.10;;;3.50;99.90;;;;;;5029311;28;20013;-70
2022/01/08 04:32:23;;;;;;;0.10;0.10;;;3.50;99.90;;;;;;5023153;28;20352;-69
2022/01/08 04:34:49;;;;;;;0.10;0.10;;;3.50;99.90;;;;;;5028533;28;20035;-70
2022/01/08 04:37:14;;;;;;;0.08;0.08;;;3.60;99.90;;;;;;5030566;28;20108;-69
2022/01/08 04:39:40;;;;;;;0.10;0.10;;;3.60;99.90;;;;;;5037013;28;20557;-70
2022/01/08 04:42:06;;;;;;;0.00;0.00;;;3.60;99.90;;;;;;5049401;28;20045;-69
2022/01/08 04:44:31;;;;;;;0.00;0.00;;;3.50;99.90;;;;;;5048886;28;20028;-71
2022/01/08 04:46:57;;;;;;;0.10;0.10;;;3.60;99.90;;;;;;5049311;28;20024;-70
2022/01/08 04:49:23;;;;;;;0.10;0.10;;;3.50;99.90;;;;;;5018663;28;20030;-69
2022/01/08 04:51:48;;;;;;;0.10;0.10;;;3.40;99.90;;;;;;5014088;28;20026;-69
2022/01/08 04:54:14;;;;;;;0.10;0.10;;;3.40;99.90;;;;;;5020714;28;20049;-71
2022/01/08 04:56:40;;;;;;;0.00;0.00;;;3.40;99.90;;;;;;5028760;28;20528;-69
2022/01/08 04:59:05;;;;;;;0.10;0.10;;;3.40;99.90;;;;;;5029138;28;20574;-69
2022/01/08 05:01:31;;;;;;;0.10;0.10;;;3.30;99.90;;;;;;5020897;28;20029;-70
2022/01/08 05:03:57;;;;;;;0.10;0.10;;;3.30;99.90;;;;;;5029123;28;20101;-70
2022/01/08 05:06:22;;;;;;;0.10;0.10;;;3.30;99.90;;;;;;5028642;28;20101;-69
2022/01/08 05:08:48;;;;;;;0.10;0.10;;;3.20;99.90;;;;;;5025097;28;20104;-70
2022/01/08 05:11:13;;;;;;;0.10;0.10;;;3.10;99.90;;;;;;5029425;28;20024;-70
2022/01/08 05:13:39;;;;;;;0.10;0.10;;;3.00;99.90;;;;;;5029203;28;20021;-69
2022/01/08 05:16:05;;;;;;;0.10;0.10;;;2.90;99.90;;;;;;5022688;28;20022;-70
2022/01/08 05:18:32;;;;;;;0.10;0.10;;;2.90;99.90;;;;;;5009435;28;20030;-70
2022/01/08 05:21:19;;;;;;;0.10;0.10;;;2.80;99.90;;;;;;5009662;28;20037;-70
2022/01/08 05:23:45;;;;;;;0.00;0.00;;;2.80;99.90;;;;;;5020983;28;20143;-69
2022/01/08 05:26:10;;;;;;;0.10;0.10;;;2.90;99.90;;;;;;5023976;28;20487;-70
2022/01/08 05:28:36;;;;;;;0.10;0.10;;;2.80;99.90;;;;;;5028935;28;20029;-69
2022/01/08 05:31:02;;;;;;;0.10;0.10;;;2.70;99.90;;;;;;5029868;28;20356;-70
2022/01/08 05:33:27;;;;;;;0.10;0.10;;;2.90;99.90;;;;;;5025341;28;20507;-70
2022/01/08 05:35:53;;;;;;;0.10;0.10;;;2.70;99.90;;;;;;5016705;28;20575;-70
2022/01/08 05:38:19;;;;;;;0.10;0.10;;;2.70;99.90;;;;;;5028647;28;20555;-69
2022/01/08 05:40:44;;;;;;;0.10;0.10;;;2.80;99.90;;;;;;5028921;28;20546;-71
2022/01/08 05:43:10;;;;;;;0.10;0.10;;;2.80;99.90;;;;;;5019940;28;20053;-69
2022/01/08 05:45:35;;;;;;;0.10;0.10;;;2.80;99.90;;;;;;5016019;28;20026;-71
2022/01/08 05:48:01;;;;;;;0.10;0.10;;;2.80;99.90;;;;;;5029273;28;20096;-71
2022/01/08 05:50:27;;;;;;;0.10;0.10;;;2.80;99.90;;;;;;5034982;28;20534;-68
2022/01/08 05:52:52;;;;;;;0.10;0.10;;;2.80;99.90;;;;;;5016014;28;20387;-70
2022/01/08 05:55:18;;;;;;;0.10;0.10;;;2.90;99.90;;;;;;5028941;28;20018;-71
2022/01/08 05:57:43;;;;;;;0.10;0.10;;;2.90;99.90;;;;;;5029009;28;20340;-72
2022/01/08 06:00:10;;;;;;;0.10;0.10;;;2.90;99.90;;;;;;5027412;28;20105;-70
2022/01/08 06:02:36;;;;;;;0.10;0.10;;;2.90;99.90;;;;;;5029258;28;20021;-69
2022/01/08 06:05:04;;;;;;;0.10;0.10;;;2.90;99.90;;;;;;5028379;28;20026;-68
2022/01/08 06:07:30;;;;;;;0.10;0.10;;;2.90;99.90;;;;;;5027226;28;20036;-69
2022/01/08 06:09:55;;;;;;;0.10;0.10;;;2.90;99.90;;;;;;5027550;28;20025;-69
2022/01/08 06:12:21;;;;;;;0.10;0.10;;;2.80;99.90;;;;;;5032531;28;20049;-70
2022/01/08 06:14:47;;;;;;;0.10;0.10;;;2.70;99.90;;;;;;5032515;28;20099;-69
2022/01/08 06:17:12;;;;;;;0.10;0.10;;;2.70;99.90;;;;;;5026312;28;20034;-70
2022/01/08 06:19:38;;;;;;;0.10;0.10;;;2.70;99.90;;;;;;5012309;28;20112;-69
2022/01/08 06:22:04;;;;;;;0.10;0.10;;;2.70;99.90;;;;;;5015639;28;20030;-69
2022/01/08 06:24:30;;;;;;;0.10;0.10;;;2.70;99.90;;;;;;5031844;28;20109;-69
2022/01/08 06:26:56;;;;;;;0.10;0.10;;;2.70;99.90;;;;;;5017088;28;20156;-69
2022/01/08 06:29:22;;;;;;;0.10;0.10;;;2.60;99.90;;;;;;5012591;28;20111;-69
2022/01/08 06:31:48;;;;;;;0.10;0.10;;;2.50;99.90;;;;;;5012345;28;20101;-69
2022/01/08 06:34:13;;;;;;;0.10;0.10;;;2.50;99.90;;;;;;5012425;28;20520;-69
2022/01/08 06:36:39;;;;;;;0.10;0.10;;;2.50;99.90;;;;;;5025715;28;20025;-70
2022/01/08 06:39:05;;;;;;;0.10;0.10;;;2.50;99.90;;;;;;5031919;28;20036;-69
2022/01/08 06:41:30;;;;;;;0.10;0.10;;;2.50;99.90;;;;;;5031833;28;20029;-72
2022/01/08 06:43:59;;;;;;;0.10;0.10;;;2.50;99.90;;;;;;5014579;28;20050;-69
2022/01/08 06:46:25;;;;;;;0.10;0.10;;;2.40;99.90;;;;;;5011921;28;20022;-69
2022/01/08 06:48:51;;;;;;;0.10;0.10;;;2.40;99.90;;;;;;5012177;28;20332;-69
2022/01/08 06:51:17;;;;;;;0.10;0.10;;;2.40;99.90;;;;;;5028440;28;20079;-69
2022/01/08 06:53:42;;;;;;;0.10;0.10;;;2.40;99.90;;;;;;5011997;28;20727;-69
2022/01/08 06:56:08;;;;;;;0.10;0.10;;;2.40;99.90;;;;;;5024839;28;20065;-69
2022/01/08 06:58:34;;;;;;;0.00;0.00;;;2.50;99.90;;;;;;5032672;28;20100;-69
2022/01/08 07:01:00;;;;;;;0.05;0.05;;;2.50;99.90;;;;;;5028362;28;20030;-68
2022/01/08 07:03:26;;;;;;;0.10;0.10;;;2.40;99.90;;;;;;5011865;28;20455;-69
2022/01/08 07:05:52;;;;;;;0.10;0.10;;;2.50;99.90;;;;;;5026102;28;20405;-69
2022/01/08 07:08:17;;;;;;;0.10;0.10;;;2.50;99.90;;;;;;5031279;28;20436;-69
2022/01/08 07:10:43;;;;;;;0.10;0.10;;;2.50;99.90;;;;;;5020307;28;20378;-69
2022/01/08 07:13:09;;;;;;;0.10;0.10;;;2.50;99.90;;;;;;5011837;28;20022;-70
2022/01/08 07:15:35;;;;;;;0.10;0.10;;;2.50;99.90;;;;;;5011298;28;20033;-69
2022/01/08 07:18:01;;;;;;;0.10;0.10;;;2.40;99.90;;;;;;5011805;28;20033;-69
2022/01/08 07:20:26;;;;;;;0.10;0.10;;;2.40;99.90;;;;;;5025720;28;20033;-70
2022/01/08 07:22:52;;;;;;;0.10;0.10;;;2.50;99.90;;;;;;5030801;28;20120;-69
2022/01/08 07:25:18;;;;;;;0.10;0.10;;;2.40;99.90;;;;;;5030491;28;20033;-69
2022/01/08 07:27:44;;;;;;;0.10;0.10;;;2.40;99.90;;;;;;5030563;28;20029;-70
2022/01/08 07:30:11;;;;;;;0.10;0.10;;;2.40;99.90;;;;;;5013983;28;20117;-69
2022/01/08 07:32:41;;;;;;;0.10;0.10;;;2.40;99.90;;;;;;5011120;28;20030;-70
2022/01/08 07:35:07;;;;;;;0.10;0.10;;;2.30;99.90;;;;;;5026862;28;20053;-69
2022/01/08 07:37:33;;;;;;;0.10;0.10;;;2.30;99.90;;;;;;5022723;28;20471;-70
2022/01/08 07:42:29;;;;;;;0.10;0.10;;;2.30;99.90;;;;;;5023333;28;20049;-68
2022/01/08 07:44:54;;;;;;;0.10;0.10;;;2.30;99.90;;;;;;5023783;28;20032;-66
2022/01/08 07:47:20;;;;;;;0.10;0.10;;;2.30;99.90;;;;;;5021689;28;20121;-68
2022/01/08 07:49:46;;;;;;;0.10;0.10;;;2.30;99.90;;;;;;5030465;28;20045;-67
2022/01/08 07:52:11;;;;;;;0.10;0.10;;;2.40;99.90;;;;;;5030200;28;20052;-67
2022/01/08 07:54:37;;;;;;;0.10;0.10;;;2.40;99.90;;;;;;5029992;28;20052;-67
2022/01/08 07:57:03;;;;;;;0.10;0.10;;;2.40;99.90;;;;;;5011873;28;20058;-67
2022/01/08 07:59:29;;;;;;;0.10;0.10;;;2.50;99.90;;;;;;5019755;28;20087;-68
2022/01/08 08:01:54;;;;;;;0.10;0.10;;;2.40;99.90;;;;;;5029763;28;20045;-67
2022/01/08 08:04:20;;;;;;;0.10;0.10;;;2.40;99.90;;;;;;5019604;28;20475;-67
2022/01/08 08:06:49;;;;;;;0.10;0.10;;;2.50;99.90;;;;;;5033541;28;20056;-67
2022/01/08 08:09:15;;;;;;;0.10;0.10;;;2.50;99.90;;;;;;5032177;28;20049;-67
2022/01/08 08:11:42;;;;;;;0.10;0.10;;;2.50;99.90;;;;;;5023393;28;20034;-67
2022/01/08 08:14:08;;;;;;;0.10;0.10;;;2.50;99.90;;;;;;5010476;28;20112;-66
2022/01/08 08:16:33;;;;;;;0.10;0.10;;;2.50;99.90;;;;;;5034353;28;20137;-67
2022/01/08 08:18:59;;;;;;;0.10;0.10;;;2.50;99.90;;;;;;5042684;28;20044;-66
2022/01/08 08:21:25;;;;;;;0.10;0.10;;;2.40;99.90;;;;;;5010216;28;20022;-67
2022/01/08 08:23:50;;;;;;;0.10;0.10;;;2.50;99.90;;;;;;5009846;28;20445;-67
2022/01/08 08:26:16;;;;;;;0.10;0.10;;;2.50;99.90;;;;;;5009980;28;20428;-67
2022/01/08 08:28:42;;;;;;;0.10;0.10;;;2.60;99.90;;;;;;5010294;28;20043;-66
2022/01/08 08:31:09;;;;;;;0.10;0.10;;;2.70;99.90;;;;;;5015167;28;20029;-67
2022/01/08 08:33:34;;;;;;;0.10;0.10;;;2.70;99.90;;;;;;5029297;28;20021;-67
2022/01/08 08:36:00;;;;;;;0.10;0.10;;;2.90;99.90;;;;;;5028175;28;20018;-68
2022/01/08 08:38:26;;;;;;;0.10;0.10;;;2.80;99.90;;;;;;5022625;28;20529;-67
2022/01/08 08:40:51;;;;;;;0.10;0.10;;;2.80;99.90;;;;;;5009788;28;20044;-67
2022/01/08 08:43:19;;;;;;;0.10;0.10;;;2.90;99.90;;;;;;5009842;28;20477;-67
2022/01/08 08:45:45;;;;;;;0.10;0.10;;;2.90;99.90;;;;;;5013428;28;20036;-67
2022/01/08 08:48:11;;;;;;;0.10;0.10;;;2.90;99.90;;;;;;5021291;28;20030;-67
2022/01/08 08:50:37;;;;;;;0.10;0.10;;;3.00;99.90;;;;;;5008551;28;20026;-66
2022/01/08 08:53:02;;;;;;;0.10;0.10;;;3.00;99.90;;;;;;5025665;28;20033;-67
2022/01/08 08:55:28;;;;;;;0.10;0.10;;;3.00;99.90;;;;;;5029232;28;20029;-67
2022/01/08 08:57:54;;;;;;;0.10;0.10;;;3.00;99.90;;;;;;5027823;28;20116;-66
2022/01/08 09:00:19;;;;;;;0.10;0.10;;;3.10;99.90;;;;;;5026328;28;20044;-66
2022/01/08 09:02:45;;;;;;;0.10;0.10;;;3.10;99.90;;;;;;5029092;28;20100;-67
2022/01/08 09:05:11;;;;;;;0.10;0.10;;;3.10;99.90;;;;;;5020647;28;20041;-67
2022/01/08 09:07:38;;;;;;;0.10;0.10;;;3.10;99.90;;;;;;5009024;28;20034;-67
2022/01/08 09:10:05;;;;;;;0.10;0.10;;;3.20;99.90;;;;;;5009358;28;20022;-66
2022/01/08 09:12:31;;;;;;;0.10;0.10;;;3.10;99.90;;;;;;5035550;28;20108;-67
2022/01/08 09:14:57;;;;;;;0.10;0.10;;;3.20;99.90;;;;;;5032243;28;20025;-67
2022/01/08 09:17:24;;;;;;;0.10;0.10;;;3.20;99.90;;;;;;5029228;28;20116;-67
2022/01/08 09:19:50;;;;;;;0.10;0.10;;;3.20;99.90;;;;;;5029136;28;20491;-67
2022/01/08 09:22:16;;;;;;;0.10;0.10;;;3.10;99.90;;;;;;5014197;28;20089;-69
2022/01/08 09:24:43;;;;;;;0.10;0.10;;;3.20;99.90;;;;;;5008938;28;20100;-66
2022/01/08 09:27:09;;;;;;;0.10;0.10;;;3.10;99.90;;;;;;5009392;28;20033;-66
2022/01/08 09:29:34;;;;;;;0.10;0.10;;;3.20;99.90;;;;;;5019548;28;20041;-67
2022/01/08 09:32:00;;;;;;;0.10;0.10;;;3.20;99.90;;;;;;5026293;28;20018;-68
2022/01/08 09:34:26;;;;;;;0.10;0.10;;;3.20;99.90;;;;;;5019013;28;20043;-66
2022/01/08 09:36:52;;;;;;;0.00;0.00;;;3.10;99.90;;;;;;5006024;28;20123;-67
2022/01/08 09:39:18;;;;;;;0.10;0.10;;;3.30;99.90;;;;;;5017374;28;20025;-66
2022/01/08 09:41:44;;;;;;;0.10;0.10;;;3.20;99.90;;;;;;5018894;28;20091;-67
2022/01/08 09:44:11;;;;;;;0.10;0.10;;;3.20;99.90;;;;;;5026234;28;20454;-67
2022/01/08 09:46:36;;;;;;;0.10;0.10;;;3.20;99.90;;;;;;5020975;28;20112;-67
2022/01/08 09:49:03;;;;;;;0.10;0.10;;;3.10;99.90;;;;;;5029045;28;20501;-67
2022/01/08 09:51:29;;;;;;;0.10;0.10;;;3.20;99.90;;;;;;5024816;28;20071;-68
2022/01/08 09:53:54;;;;;;;0.10;0.10;;;3.20;99.90;;;;;;5031110;28;20047;-68
2022/01/08 09:56:22;;;;;;;0.10;0.10;;;2.80;99.90;;;;;;5025511;28;20029;-68
2022/01/08 09:58:48;;;;;;;0.10;0.10;;;3.30;99.90;;;;;;5030067;28;20503;-68
2022/01/08 10:01:34;;;;;;;0.10;0.10;;;3.40;99.90;;;;;;5031178;28;20041;-69
2022/01/08 10:04:03;;;;;;;0.10;0.10;;;3.30;99.90;;;;;;5025488;28;20037;-68
2022/01/08 10:06:32;;;;;;;0.03;0.03;;;3.30;99.90;;;;;;5028576;28;20407;-69
2022/01/08 10:08:58;;;;;;;0.10;0.10;;;3.30;99.90;;;;;;5026060;28;20029;-68
2022/01/08 10:11:24;;;;;;;0.00;0.00;;;3.40;99.90;;;;;;5026894;28;20178;-67
2022/01/08 10:14:01;;;;;;;0.10;0.10;;;3.40;99.90;;;;;;5030304;28;20029;-67
2022/01/08 10:19:21;;;;;;;0.10;0.10;;;3.50;99.90;;;;;;5026532;28;20036;-66
2022/01/08 10:21:47;;;;;;;0.10;0.10;;;3.40;99.90;;;;;;5030053;28;20029;-67
2022/01/08 10:24:19;;;;;;;0.10;0.10;;;3.40;99.90;;;;;;5025762;28;20021;-68
2022/01/08 10:26:45;;;;;;;0.10;0.10;;;3.40;99.90;;;;;;5027753;28;20033;-70
2022/01/08 10:29:13;;;;;;;0.10;0.10;;;3.40;99.90;;;;;;5049701;28;20097;-72
2022/01/08 10:31:40;;;;;;;0.10;0.10;;;3.50;99.90;;;;;;5029237;28;20097;-69
2022/01/08 10:34:06;;;;;;;0.10;0.10;;;3.50;99.90;;;;;;5025487;28;20036;-69
2022/01/08 10:36:36;;;;;;;0.10;0.10;;;3.50;99.90;;;;;;5025311;28;20029;-67
2022/01/08 10:39:11;;;;;;;0.10;0.10;;;3.50;99.90;;;;;;5021942;28;20030;-68
2022/01/08 10:41:43;;;;;;;0.10;0.10;;;3.60;99.90;;;;;;5030146;28;20029;-70
2022/01/08 10:44:30;;;;;;;0.10;0.10;;;3.70;99.90;;;;;;5026494;28;20094;-71
2022/01/08 10:47:00;;;;;;;0.10;0.10;;;3.60;99.90;;;;;;5024114;28;20072;-70
2022/01/08 10:49:48;;;;;;;0.10;0.10;;;3.60;99.90;;;;;;5011779;28;20022;-70
2022/01/08 10:52:17;;;;;;;0.10;0.10;;;3.50;99.90;;;;;;5022747;28;20025;-69
2022/01/08 10:54:47;;;;;;;0.10;0.10;;;3.50;99.90;;;;;;5022147;28;20034;-70
2022/01/08 10:57:14;;;;;;;0.10;0.10;;;3.50;99.90;;;;;;5028951;28;20041;-70
2022/01/08 10:59:41;;;;;;;2.05;1.95;;;3.50;99.90;;;;;;5025267;28;20022;-70
2022/01/08 11:02:15;;;;;;;0.10;0.10;;;3.50;99.90;;;;;;5028534;28;20029;-71
2022/01/08 11:04:41;;;;;;;0.10;0.10;;;3.60;99.90;;;;;;5034318;28;20112;-70
2022/01/08 11:07:18;;;;;;;0.10;0.10;;;3.70;99.90;;;;;;5032435;28;20030;-70
2022/01/08 11:09:45;;;;;;;0.10;0.10;;;3.70;99.90;;;;;;5034898;28;20044;-71
2022/01/08 11:12:17;;;;;;;0.10;0.10;;;3.80;99.90;;;;;;5029065;28;20092;-68
2022/01/08 11:17:30;;;;;;;0.10;0.10;;;4.00;99.90;;;;;;5026178;28;20104;-69
2022/01/08 11:20:06;;;;;;;0.10;0.10;;;4.00;99.90;;;;;;5031061;28;20095;-69
2022/01/08 11:22:34;;;;;;;0.10;0.10;;;4.10;99.90;;;;;;5031037;28;20552;-68
2022/01/08 11:25:08;;;;;;;0.10;0.10;;;4.10;99.90;;;;;;5026971;28;20131;-69
2022/01/08 11:27:48;;;;;;;0.10;0.10;;;4.10;99.90;;;;;;5030793;28;20041;-70
2022/01/08 11:30:20;;;;;;;0.10;0.10;;;4.10;99.90;;;;;;5030659;28;20368;-68
2022/01/08 11:32:48;;;;;;;0.10;0.10;;;4.10;99.90;;;;;;5031035;28;20032;-69
2022/01/08 11:35:15;;;;;;;0.10;0.10;;;4.00;99.90;;;;;;5013866;28;20113;-70
2022/01/08 11:37:49;;;;;;;0.10;0.10;;;4.00;99.90;;;;;;5010682;28;20099;-70
2022/01/08 11:40:18;;;;;;;0.10;0.10;;;3.90;99.90;;;;;;5026977;28;20056;-70
2022/01/08 11:42:44;;;;;;;0.10;0.10;;;3.90;99.90;;;;;;5021858;28;20041;-70
2022/01/08 11:45:21;;;;;;;0.10;0.10;;;4.10;99.90;;;;;;5010833;28;20166;-70
2022/01/08 11:47:51;;;;;;;0.10;0.10;;;4.10;99.90;;;;;;5010565;28;20120;-68
2022/01/08 11:50:25;;;;;;;0.10;0.10;;;4.40;99.90;;;;;;5010587;28;20460;-69
2022/01/08 11:53:21;;;;;;;0.10;0.10;;;4.60;99.90;;;;;;5023497;28;20531;-68
2022/01/08 11:55:50;;;;;;;0.10;0.10;;;4.70;99.90;;;;;;5030231;28;20075;-70
2022/01/08 11:58:16;;;;;;;0.10;0.10;;;4.80;99.90;;;;;;5028380;28;20049;-69
2022/01/08 12:00:55;;;;;;;0.10;0.10;;;4.70;99.90;;;;;;5035017;28;20035;-69
2022/01/08 12:03:28;;;;;;;0.10;0.10;;;4.60;99.90;;;;;;5048448;28;20037;-69
2022/01/08 12:05:54;;;;;;;0.10;0.10;;;4.50;99.90;;;;;;5050024;28;20121;-69
2022/01/08 12:08:47;;;;;;;0.10;0.10;;;4.50;99.90;;;;;;5049000;28;20108;-69
2022/01/08 12:11:13;;;;;;;0.10;0.10;;;4.50;99.90;;;;;;5017836;28;20464;-70
2022/01/08 12:13:46;;;;;;;0.10;0.10;;;4.50;99.90;;;;;;5030055;28;20117;-70
2022/01/08 12:16:42;;;;;;;0.10;0.10;;;4.60;99.90;;;;;;5029491;28;20052;-69
2022/01/08 12:19:25;;;;;;;0.10;0.10;;;4.60;99.90;;;;;;5007543;28;20034;-67
2022/01/08 12:21:51;;;;;;;0.10;0.10;;;4.60;99.90;;;;;;5010138;28;20041;-69
2022/01/08 12:24:25;;;;;;;0.10;0.10;;;4.60;99.90;;;;;;5010427;28;20060;-68
2022/01/08 12:26:52;;;;;;;0.10;0.10;;;4.70;99.90;;;;;;5016890;28;20092;-70
2022/01/08 12:29:37;;;;;;;0.10;0.10;;;4.70;99.90;;;;;;5010695;28;20033;-69
2022/01/08 12:32:28;;;;;;;0.10;0.10;;;4.70;99.90;;;;;;5010389;28;20026;-69
2022/01/08 12:35:01;;;;;;;0.10;0.10;;;4.60;99.90;;;;;;5010457;28;20018;-69
2022/01/08 12:37:41;;;;;;;0.10;0.10;;;4.60;99.90;;;;;;5010765;28;20034;-68
2022/01/08 12:40:10;;;;;;;0.10;0.10;;;4.50;99.90;;;;;;5016105;28;20026;-69
2022/01/08 12:42:43;;;;;;;0.10;0.10;;;4.40;99.90;;;;;;5027737;28;20033;-69
2022/01/08 12:45:15;;;;;;;0.10;0.10;;;3.80;99.90;;;;;;5009563;28;20029;-68
2022/01/08 12:47:47;;;;;;;0.10;0.10;;;4.10;99.90;;;;;;5011552;28;20022;-67
2022/01/08 12:50:23;;;;;;;0.10;0.10;;;4.10;99.90;;;;;;5029289;28;20025;-68
2022/01/08 12:53:07;;;;;;;0.10;0.10;;;4.20;99.90;;;;;;5017832;28;20030;-69
2022/01/08 12:55:43;;;;;;;0.10;0.10;;;4.30;99.90;;;;;;5028735;28;20084;-69
2022/01/08 12:58:13;;;;;;;0.10;0.10;;;4.20;99.90;;;;;;5046368;28;20036;-69
2022/01/08 13:00:59;;;;;;;0.10;0.10;;;4.30;99.90;;;;;;5024888;28;20109;-69
2022/01/08 13:03:28;;;;;;;0.10;0.10;;;4.40;99.90;;;;;;5009772;28;20030;-68
2022/01/08 13:05:54;;;;;;;0.10;0.10;;;4.90;99.90;;;;;;5011774;28;20105;-69
2022/01/08 13:08:25;;;;;;;0.10;0.10;;;4.50;99.90;;;;;;5019480;28;20499;-69
2022/01/08 13:11:00;;;;;;;0.10;0.10;;;4.60;99.90;;;;;;5027797;28;20503;-69
2022/01/08 13:13:44;;;;;;;0.10;0.10;;;4.60;99.90;;;;;;5029534;28;20391;-68
2022/01/08 13:16:13;;;;;;;0.10;0.10;;;4.60;99.90;;;;;;5012663;28;20109;-69
2022/01/08 13:18:40;;;;;;;0.00;0.00;;;4.70;99.90;;;;;;5009394;28;20108;-69
2022/01/08 13:21:07;;;;;;;0.10;0.10;;;4.80;99.90;;;;;;5012573;28;20049;-68
2022/01/08 13:23:46;;;;;;;0.10;0.10;;;4.90;99.90;;;;;;5027440;28;20040;-68
2022/01/08 13:26:13;;;;;;;0.10;0.10;;;4.80;99.90;;;;;;5014029;28;20037;-68
2022/01/08 13:28:47;;;;;;;0.10;0.10;;;4.80;99.90;;;;;;5011837;28;20033;-68